Time;durP1;ratioP1;P1;durP2;ratioP2;P2;SDS_P1;SDS_P2;PMS_P1;PMS_P2;Temp;Humidity;BMP_temperature;BMP_pressure;BME280_temperature;BME280_humidity;BME280_pressure;Samples;Min_cycle;Max_cycle;Signal;HPM_P1;HPM_P2
2022/08/26 00:00:19;;;;;;;0.40;0.40;;;21.60;99.90;;;;;;5095531;28;20208;-65
2022/08/26 00:03:08;;;;;;;0.40;0.40;;;21.60;99.90;;;;;;5095131;28;20200;-65
2022/08/26 00:05:56;;;;;;;0.40;0.40;;;21.60;99.90;;;;;;5095663;28;20241;-65
2022/08/26 00:08:46;;;;;;;0.40;0.40;;;21.50;99.90;;;;;;5094888;28;20684;-65
2022/08/26 00:11:35;;;;;;;0.40;0.40;;;21.50;99.90;;;;;;5094193;28;20200;-66
2022/08/26 00:14:25;;;;;;;3.92;3.60;;;21.50;99.90;;;;;;5094899;28;20259;-65
2022/08/26 00:17:18;;;;;;;0.40;0.40;;;21.50;99.90;;;;;;5095391;28;20242;-66
2022/08/26 00:20:09;;;;;;;0.40;0.40;;;21.50;99.90;;;;;;5094978;28;20226;-67
2022/08/26 00:22:57;;;;;;;0.40;0.40;;;21.50;99.90;;;;;;5095072;28;20207;-65
2022/08/26 00:25:47;;;;;;;0.40;0.40;;;21.50;99.90;;;;;;5095381;28;20568;-65
2022/08/26 00:28:36;;;;;;;0.40;0.40;;;21.50;99.90;;;;;;5095181;28;20195;-65
2022/08/26 00:31:24;;;;;;;0.40;0.40;;;21.40;99.90;;;;;;5094667;28;20219;-66
2022/08/26 00:34:12;;;;;;;0.40;0.40;;;21.40;99.90;;;;;;5094406;28;20242;-65
2022/08/26 00:37:02;;;;;;;0.40;0.40;;;21.30;99.90;;;;;;5094454;28;20579;-65
2022/08/26 00:39:51;;;;;;;0.40;0.40;;;21.30;99.90;;;;;;5094785;28;20196;-66
2022/08/26 00:42:41;;;;;;;0.40;0.40;;;21.20;99.90;;;;;;5094414;28;20223;-66
2022/08/26 00:45:39;;;;;;;0.40;0.40;;;21.20;99.90;;;;;;5093725;28;20212;-65
2022/08/26 00:48:29;;;;;;;0.40;0.40;;;21.10;99.90;;;;;;5093981;28;20694;-65
2022/08/26 00:51:21;;;;;;;0.40;0.40;;;21.00;99.90;;;;;;5093589;28;20210;-66
2022/08/26 00:54:10;;;;;;;0.40;0.40;;;21.00;99.90;;;;;;5093946;28;20710;-66
2022/08/26 00:57:02;;;;;;;0.40;0.40;;;21.00;99.90;;;;;;5093330;28;20199;-66
2022/08/26 00:59:57;;;;;;;0.40;0.40;;;20.90;99.90;;;;;;5093572;28;20207;-66
2022/08/26 01:02:47;;;;;;;0.40;0.40;;;20.80;99.90;;;;;;5093937;28;20268;-65
2022/08/26 01:05:38;;;;;;;0.40;0.40;;;20.80;99.90;;;;;;5093158;28;20716;-66
2022/08/26 01:08:27;;;;;;;0.40;0.40;;;20.80;99.90;;;;;;5092642;28;20249;-66
2022/08/26 01:11:15;;;;;;;0.40;0.40;;;20.80;99.90;;;;;;5094031;28;20207;-67
2022/08/26 01:14:06;;;;;;;0.40;0.40;;;20.80;99.90;;;;;;5093473;28;20220;-66
2022/08/26 01:16:55;;;;;;;0.40;0.40;;;20.80;99.90;;;;;;5092634;28;20257;-66
2022/08/26 01:19:49;;;;;;;0.40;0.40;;;20.80;99.90;;;;;;5093282;28;20672;-65
2022/08/26 01:22:50;;;;;;;0.40;0.40;;;20.80;99.90;;;;;;5092179;28;20203;-67
2022/08/26 01:25:43;;;;;;;0.40;0.40;;;20.80;99.90;;;;;;5093614;28;20323;-66
2022/08/26 01:28:33;;;;;;;0.40;0.40;;;20.70;99.90;;;;;;5092880;28;20200;-65
2022/08/26 01:31:24;;;;;;;0.40;0.40;;;20.60;99.90;;;;;;5093513;28;20211;-65
2022/08/26 01:34:17;;;;;;;0.40;0.40;;;20.70;99.90;;;;;;5093054;28;20223;-68
2022/08/26 01:37:12;;;;;;;0.40;0.40;;;20.70;99.90;;;;;;5090166;28;20355;-66
2022/08/26 01:40:06;;;;;;;0.40;0.40;;;20.70;99.90;;;;;;5081416;28;20338;-69
2022/08/26 01:42:55;;;;;;;0.82;0.82;;;20.70;99.90;;;;;;5073374;28;20201;-67
2022/08/26 01:45:44;;;;;;;0.40;0.40;;;20.70;99.90;;;;;;5073311;28;20216;-68
2022/08/26 01:48:34;;;;;;;0.40;0.40;;;20.60;99.90;;;;;;5072746;28;20196;-65
2022/08/26 01:51:25;;;;;;;0.40;0.40;;;20.70;99.90;;;;;;5072186;28;20551;-65
2022/08/26 01:54:13;;;;;;;0.40;0.40;;;20.60;99.90;;;;;;5072494;28;20273;-65
2022/08/26 01:57:03;;;;;;;0.40;0.40;;;20.60;99.90;;;;;;5071796;28;20201;-70
2022/08/26 01:59:56;;;;;;;0.40;0.40;;;20.60;99.90;;;;;;5072224;28;20262;-66
2022/08/26 02:02:47;;;;;;;0.40;0.40;;;20.60;99.90;;;;;;5072410;28;20665;-68
2022/08/26 02:05:35;;;;;;;0.40;0.40;;;20.60;99.90;;;;;;5071237;28;20288;-70
2022/08/26 02:08:28;;;;;;;0.40;0.40;;;20.50;99.90;;;;;;5072341;28;20228;-70
2022/08/26 02:11:18;;;;;;;0.40;0.40;;;20.50;99.90;;;;;;5072024;28;20207;-65
2022/08/26 02:14:10;;;;;;;0.40;0.40;;;20.50;99.90;;;;;;5071429;28;20270;-67
2022/08/26 02:16:59;;;;;;;0.40;0.40;;;20.50;99.90;;;;;;5071785;28;20201;-68
2022/08/26 02:19:49;;;;;;;0.40;0.40;;;20.40;99.90;;;;;;5071817;28;20279;-68
2022/08/26 02:22:39;;;;;;;0.40;0.40;;;20.40;99.90;;;;;;5072493;28;20277;-70
2022/08/26 02:25:31;;;;;;;0.40;0.40;;;20.40;99.90;;;;;;5071944;28;20213;-69
2022/08/26 02:28:19;;;;;;;0.40;0.40;;;20.50;99.90;;;;;;5071432;28;20200;-66
2022/08/26 02:31:14;;;;;;;0.40;0.40;;;20.40;99.90;;;;;;5071644;28;20201;-66
2022/08/26 02:34:10;;;;;;;0.40;0.40;;;20.40;99.90;;;;;;5072480;28;20216;-70
2022/08/26 02:37:00;;;;;;;0.40;0.40;;;20.30;99.90;;;;;;5073041;28;20229;-70
2022/08/26 02:39:48;;;;;;;0.40;0.40;;;20.30;99.90;;;;;;5072114;28;20200;-68
2022/08/26 02:42:37;;;;;;;0.40;0.40;;;20.30;99.90;;;;;;5071719;28;20239;-67
2022/08/26 02:45:26;;;;;;;0.40;0.40;;;20.30;99.90;;;;;;5071484;28;20212;-66
2022/08/26 02:48:18;;;;;;;0.40;0.40;;;20.30;99.90;;;;;;5071158;28;20778;-68
2022/08/26 02:51:06;;;;;;;0.40;0.40;;;20.30;99.90;;;;;;5070904;28;20863;-66
2022/08/26 02:53:55;;;;;;;0.40;0.40;;;20.30;99.90;;;;;;5072531;28;20632;-66
2022/08/26 02:56:45;;;;;;;0.40;0.40;;;20.20;99.90;;;;;;5071429;28;20224;-70
2022/08/26 02:59:34;;;;;;;0.40;0.40;;;20.40;99.90;;;;;;5071737;28;20258;-68
2022/08/26 03:02:22;;;;;;;0.40;0.40;;;20.20;99.90;;;;;;5071447;28;20211;-67
2022/08/26 03:05:12;;;;;;;0.40;0.40;;;20.20;99.90;;;;;;5071617;28;20342;-67
2022/08/26 03:08:03;;;;;;;0.40;0.40;;;20.20;99.90;;;;;;5071457;28;20215;-65
2022/08/26 03:10:51;;;;;;;0.40;0.40;;;20.20;99.90;;;;;;5069946;28;20205;-66
2022/08/26 03:13:40;;;;;;;0.40;0.40;;;20.20;99.90;;;;;;5071639;28;20250;-69
2022/08/26 03:16:31;;;;;;;0.40;0.40;;;20.20;99.90;;;;;;5113696;22;20721;-70
2022/08/26 03:19:21;;;;;;;0.40;0.40;;;20.10;99.90;;;;;;5094857;28;20211;-72
2022/08/26 03:22:10;;;;;;;0.40;0.40;;;20.20;99.90;;;;;;5095959;28;20203;-70
2022/08/26 03:25:02;;;;;;;0.40;0.40;;;20.20;99.90;;;;;;5095836;28;20299;-69
2022/08/26 03:27:51;;;;;;;0.40;0.40;;;20.20;99.90;;;;;;5096785;28;20261;-69
2022/08/26 03:30:38;;;;;;;0.40;0.40;;;20.10;99.90;;;;;;5096411;28;20601;-70
2022/08/26 03:33:32;;;;;;;0.40;0.40;;;20.10;99.90;;;;;;5097664;28;20745;-70
2022/08/26 03:36:21;;;;;;;0.40;0.40;;;20.10;99.90;;;;;;5098063;28;20278;-70
2022/08/26 03:39:13;;;;;;;0.40;0.40;;;20.00;99.90;;;;;;5097811;28;20211;-71
2022/08/26 03:42:01;;;;;;;0.40;0.40;;;20.10;99.90;;;;;;5097825;28;20200;-70
2022/08/26 03:44:50;;;;;;;0.40;0.40;;;20.00;99.90;;;;;;5098921;28;20231;-70
2022/08/26 03:47:38;;;;;;;0.40;0.40;;;20.00;99.90;;;;;;5097553;28;20253;-70
2022/08/26 03:50:27;;;;;;;0.40;0.40;;;20.20;99.90;;;;;;5098063;28;20257;-71
2022/08/26 03:53:15;;;;;;;0.40;0.40;;;20.00;99.90;;;;;;5098257;28;20195;-71
2022/08/26 03:56:09;;;;;;;0.40;0.40;;;20.00;99.90;;;;;;5098509;28;20226;-70
2022/08/26 03:58:57;;;;;;;0.40;0.40;;;20.00;99.90;;;;;;5098096;28;20622;-69
2022/08/26 04:01:45;;;;;;;0.40;0.40;;;20.00;99.90;;;;;;5097715;28;20675;-70
2022/08/26 04:04:35;;;;;;;0.40;0.40;;;20.00;99.90;;;;;;5095812;28;20200;-71
2022/08/26 04:07:24;;;;;;;0.40;0.40;;;19.90;99.90;;;;;;5096560;28;20238;-71
2022/08/26 04:10:15;;;;;;;0.40;0.40;;;20.00;99.90;;;;;;5097748;28;20196;-70
2022/08/26 04:13:08;;;;;;;0.40;0.40;;;20.00;99.90;;;;;;5097727;28;20208;-70
2022/08/26 04:15:56;;;;;;;0.40;0.40;;;20.00;99.90;;;;;;5098565;28;20231;-70
2022/08/26 04:18:45;;;;;;;0.40;0.40;;;20.00;99.90;;;;;;5100650;28;20210;-69
2022/08/26 04:21:34;;;;;;;0.40;0.40;;;20.00;99.90;;;;;;5100482;28;20200;-70
2022/08/26 04:24:25;;;;;;;0.40;0.40;;;20.10;99.90;;;;;;5105217;28;20200;-70
2022/08/26 04:27:14;;;;;;;0.40;0.40;;;20.10;99.90;;;;;;5104257;28;20207;-70
2022/08/26 04:30:06;;;;;;;0.40;0.40;;;20.10;99.90;;;;;;5101523;28;20261;-70
2022/08/26 04:32:56;;;;;;;0.40;0.40;;;20.10;99.90;;;;;;5100317;28;20276;-69
2022/08/26 04:35:44;;;;;;;0.40;0.40;;;20.20;99.90;;;;;;5099337;28;20216;-71
2022/08/26 04:38:34;;;;;;;0.40;0.40;;;20.30;99.90;;;;;;5098835;28;20727;-69
2022/08/26 04:41:23;;;;;;;0.40;0.40;;;20.30;99.90;;;;;;5098172;28;20196;-71
2022/08/26 04:44:12;;;;;;;0.40;0.40;;;20.40;99.90;;;;;;5097966;28;20200;-70
2022/08/26 04:47:02;;;;;;;0.40;0.40;;;20.40;99.90;;;;;;5097691;28;20278;-72
2022/08/26 04:49:52;;;;;;;0.40;0.40;;;20.50;99.90;;;;;;5095705;28;20254;-70
2022/08/26 04:52:41;;;;;;;0.40;0.40;;;20.60;99.90;;;;;;5095628;28;20231;-70
2022/08/26 04:55:29;;;;;;;0.40;0.40;;;20.70;99.90;;;;;;5094549;28;20248;-72
2022/08/26 04:58:26;;;;;;;0.40;0.40;;;20.70;99.90;;;;;;5094872;28;20196;-71
2022/08/26 05:01:15;;;;;;;0.40;0.40;;;20.80;99.90;;;;;;5095533;28;20214;-73
2022/08/26 05:04:05;;;;;;;0.40;0.40;;;20.90;99.90;;;;;;5094505;28;20219;-71
2022/08/26 05:06:55;;;;;;;0.40;0.40;;;21.00;99.90;;;;;;5094620;28;20595;-72
2022/08/26 05:09:49;;;;;;;0.35;0.35;;;21.00;99.90;;;;;;5094941;28;20196;-71
2022/08/26 05:12:38;;;;;;;0.40;0.40;;;21.10;99.90;;;;;;5094803;28;20204;-70
2022/08/26 05:15:27;;;;;;;0.50;0.50;;;21.10;99.90;;;;;;5094054;28;20228;-70
2022/08/26 05:18:20;;;;;;;0.40;0.40;;;21.10;99.90;;;;;;5093763;28;20197;-72
2022/08/26 05:21:18;;;;;;;0.40;0.40;;;21.20;99.90;;;;;;5094717;28;20200;-71
2022/08/26 05:24:06;;;;;;;0.40;0.40;;;21.30;99.90;;;;;;5094206;28;20200;-71
2022/08/26 05:26:55;;;;;;;0.40;0.40;;;21.40;99.90;;;;;;5094021;28;20241;-71
2022/08/26 05:29:43;;;;;;;0.40;0.40;;;21.40;99.90;;;;;;5093293;28;20207;-72
2022/08/26 05:32:31;;;;;;;0.40;0.40;;;21.60;99.90;;;;;;5092947;28;20273;-72
2022/08/26 05:35:19;;;;;;;0.40;0.40;;;21.70;99.90;;;;;;5094094;28;20712;-71
2022/08/26 05:38:13;;;;;;;0.40;0.40;;;21.60;99.90;;;;;;5093878;28;20247;-70
2022/08/26 05:41:01;;;;;;;0.40;0.40;;;21.70;99.90;;;;;;5094205;28;20581;-70
2022/08/26 05:43:51;;;;;;;0.40;0.40;;;21.70;99.90;;;;;;5080137;28;20208;-70
2022/08/26 05:46:40;;;;;;;0.40;0.40;;;21.70;99.90;;;;;;5087204;28;20223;-70
2022/08/26 05:49:31;;;;;;;0.40;0.40;;;21.80;99.90;;;;;;5073346;28;20215;-69
2022/08/26 05:52:19;;;;;;;0.40;0.40;;;21.90;99.90;;;;;;5078605;28;20199;-71
2022/08/26 05:55:13;;;;;;;0.40;0.40;;;21.90;99.90;;;;;;5077910;28;20231;-71
2022/08/26 05:58:01;;;;;;;0.40;0.40;;;22.00;99.90;;;;;;5092888;28;20216;-71
2022/08/26 06:00:58;;;;;;;1.80;1.70;;;22.00;99.90;;;;;;5091635;28;20633;-71
2022/08/26 06:03:48;;;;;;;0.40;0.40;;;22.10;99.90;;;;;;5081477;28;20203;-70
2022/08/26 06:06:40;;;;;;;0.50;0.50;;;22.10;99.90;;;;;;5092428;28;20303;-70
2022/08/26 06:09:29;;;;;;;0.40;0.40;;;22.10;99.90;;;;;;5090915;28;20200;-71
2022/08/26 06:12:20;;;;;;;0.40;0.40;;;22.10;99.90;;;;;;5093129;28;20322;-71
2022/08/26 06:15:09;;;;;;;0.40;0.40;;;22.30;99.90;;;;;;5092162;28;20582;-68
2022/08/26 06:17:57;;;;;;;0.40;0.40;;;22.30;99.90;;;;;;5092437;28;20212;-68
2022/08/26 06:20:47;;;;;;;0.40;0.40;;;22.50;99.90;;;;;;5091857;28;20257;-70
2022/08/26 06:26:54;;;;;;;0.40;0.40;;;22.70;99.90;;;;;;5092651;28;20284;-68
2022/08/26 06:29:44;;;;;;;0.40;0.40;;;22.70;99.90;;;;;;5092266;28;20200;-69
2022/08/26 06:32:33;;;;;;;0.40;0.40;;;22.80;99.90;;;;;;5085371;28;20235;-69
2022/08/26 06:35:22;;;;;;;0.40;0.40;;;22.90;99.90;;;;;;5083009;28;20251;-69
2022/08/26 06:38:10;;;;;;;0.40;0.40;;;22.90;99.90;;;;;;5087734;28;20690;-68
2022/08/26 06:40:59;;;;;;;0.40;0.40;;;22.90;99.90;;;;;;5092452;28;20195;-69
2022/08/26 06:43:49;;;;;;;0.40;0.40;;;22.90;99.90;;;;;;5083676;28;20209;-68
2022/08/26 06:46:40;;;;;;;0.40;0.40;;;23.00;99.90;;;;;;5088547;28;20612;-68
2022/08/26 06:49:31;;;;;;;0.40;0.40;;;23.00;99.90;;;;;;5071708;28;20330;-69
2022/08/26 06:52:19;;;;;;;0.40;0.40;;;23.10;99.90;;;;;;5080068;28;20230;-69
2022/08/26 06:55:11;;;;;;;0.40;0.40;;;23.10;99.90;;;;;;5082056;28;20224;-69
2022/08/26 06:57:59;;;;;;;0.40;0.40;;;23.20;99.90;;;;;;5080067;28;20305;-69
2022/08/26 07:00:47;;;;;;;0.40;0.40;;;23.30;99.90;;;;;;5078582;28;20207;-69
2022/08/26 07:03:37;;;;;;;1.15;1.15;;;23.40;99.90;;;;;;5077567;28;20196;-69
2022/08/26 07:06:28;;;;;;;0.40;0.40;;;23.50;99.90;;;;;;5092042;28;20224;-68
2022/08/26 07:09:16;;;;;;;0.40;0.40;;;23.80;99.90;;;;;;5091422;28;20253;-68
2022/08/26 07:12:05;;;;;;;0.40;0.40;;;23.70;99.90;;;;;;5091021;28;20204;-68
2022/08/26 07:14:54;;;;;;;0.40;0.40;;;23.80;99.90;;;;;;5090909;28;20277;-68
2022/08/26 07:17:44;;;;;;;0.40;0.40;;;23.90;99.90;;;;;;5089925;28;20301;-68
2022/08/26 07:20:38;;;;;;;0.40;0.40;;;24.00;99.90;;;;;;5084144;28;20205;-68
2022/08/26 07:23:29;;;;;;;0.40;0.40;;;24.00;99.90;;;;;;5089515;28;20680;-68
2022/08/26 07:26:20;;;;;;;0.40;0.40;;;24.20;99.90;;;;;;5082042;28;20219;-68
2022/08/26 07:29:08;;;;;;;0.40;0.40;;;24.20;99.90;;;;;;5081605;28;20201;-69
2022/08/26 07:31:57;;;;;;;0.40;0.40;;;24.40;99.90;;;;;;5085341;28;20711;-68
2022/08/26 07:34:45;;;;;;;0.40;0.40;;;24.40;99.90;;;;;;5081398;28;20216;-68
2022/08/26 07:37:35;;;;;;;0.40;0.40;;;24.50;99.90;;;;;;5087465;28;20242;-68
2022/08/26 07:40:26;;;;;;;0.40;0.40;;;24.60;99.90;;;;;;5084834;28;20673;-69
2022/08/26 07:43:14;;;;;;;0.40;0.40;;;24.70;99.90;;;;;;5082225;28;20242;-69
2022/08/26 07:46:05;;;;;;;0.40;0.40;;;24.80;99.90;;;;;;5084612;28;20255;-69
2022/08/26 07:48:53;;;;;;;0.40;0.40;;;24.90;99.90;;;;;;5082402;28;20196;-68
2022/08/26 07:51:43;;;;;;;0.50;0.50;;;25.00;99.90;;;;;;5084549;28;20279;-68
2022/08/26 07:54:39;;;;;;;0.40;0.40;;;25.20;99.90;;;;;;5084240;28;20210;-68
2022/08/26 07:57:29;;;;;;;0.40;0.40;;;25.20;99.90;;;;;;5075847;28;20220;-68
2022/08/26 08:00:17;;;;;;;0.40;0.40;;;25.30;99.90;;;;;;5094075;28;20218;-69
2022/08/26 08:03:08;;;;;;;0.40;0.40;;;25.40;99.90;;;;;;5085093;28;20288;-68
2022/08/26 08:05:57;;;;;;;0.40;0.40;;;25.50;99.90;;;;;;5084979;28;20224;-70
2022/08/26 08:08:46;;;;;;;0.40;0.40;;;25.70;99.90;;;;;;5085778;28;20211;-68
2022/08/26 08:11:40;;;;;;;0.40;0.40;;;26.00;99.90;;;;;;5078793;28;20207;-69
2022/08/26 08:14:30;;;;;;;0.40;0.40;;;26.10;99.90;;;;;;5093098;28;20208;-69
2022/08/26 08:17:18;;;;;;;0.70;0.70;;;26.10;99.90;;;;;;5076748;28;20201;-69
2022/08/26 08:20:08;;;;;;;0.40;0.40;;;26.20;99.90;;;;;;5084815;28;20243;-68
2022/08/26 08:22:58;;;;;;;1.33;1.33;;;26.20;99.90;;;;;;5093019;28;20219;-68
2022/08/26 08:25:47;;;;;;;0.40;0.40;;;26.20;99.90;;;;;;5086201;28;20254;-68
2022/08/26 08:28:38;;;;;;;0.40;0.40;;;26.30;99.90;;;;;;5090773;28;20249;-68
2022/08/26 08:31:36;;;;;;;0.40;0.40;;;26.30;99.90;;;;;;5091569;28;20265;-68
2022/08/26 08:34:45;;;;;;;0.40;0.40;;;26.30;99.90;;;;;;5076749;28;20230;-70
2022/08/26 08:37:33;;;;;;;0.40;0.40;;;26.40;99.90;;;;;;5091141;28;20695;-69
2022/08/26 08:40:23;;;;;;;0.40;0.40;;;26.50;99.90;;;;;;5090574;28;20239;-68
2022/08/26 08:43:14;;;;;;;0.40;0.40;;;26.60;99.90;;;;;;5091097;28;20200;-68
2022/08/26 08:46:09;;;;;;;4.43;4.05;;;26.70;99.90;;;;;;5082937;28;20234;-68
2022/08/26 08:48:59;;;;;;;0.40;0.40;;;26.80;99.90;;;;;;5085174;28;20192;-68
2022/08/26 08:51:53;;;;;;;0.40;0.40;;;26.90;99.90;;;;;;5085086;28;20694;-69
2022/08/26 08:54:42;;;;;;;0.40;0.40;;;27.00;99.90;;;;;;5094261;28;20231;-69
2022/08/26 08:57:42;;;;;;;0.40;0.40;;;27.10;99.90;;;;;;5082057;28;20756;-68
2022/08/26 09:00:39;;;;;;;1.98;1.88;;;27.30;99.90;;;;;;5074649;28;20200;-69
2022/08/26 09:03:40;;;;;;;0.50;0.50;;;27.40;99.90;;;;;;5073028;28;20215;-68
2022/08/26 09:06:28;;;;;;;0.40;0.40;;;27.60;99.90;;;;;;5073366;28;20228;-68
2022/08/26 09:09:23;;;;;;;0.40;0.40;;;27.60;99.90;;;;;;5072743;28;20201;-68
2022/08/26 09:12:15;;;;;;;0.40;0.40;;;27.80;99.90;;;;;;5072953;28;20196;-68
2022/08/26 09:15:14;;;;;;;0.40;0.40;;;28.40;99.90;;;;;;5104227;22;21519;-66
2022/08/26 09:18:09;;;;;;;0.40;0.40;;;28.40;99.90;;;;;;5113547;28;20335;-65
2022/08/26 09:21:04;;;;;;;0.40;0.40;;;29.00;99.90;;;;;;5112659;28;20496;-65
2022/08/26 09:23:55;;;;;;;0.40;0.40;;;29.40;99.90;;;;;;5112485;28;20282;-66
2022/08/26 09:26:46;;;;;;;0.63;0.63;;;29.80;99.90;;;;;;5112921;28;20215;-66
2022/08/26 09:29:43;;;;;;;0.40;0.40;;;30.10;99.90;;;;;;5112772;28;20195;-65
2022/08/26 09:32:31;;;;;;;0.40;0.40;;;30.30;99.90;;;;;;5107440;28;20660;-65
2022/08/26 09:35:25;;;;;;;1.00;1.00;;;30.30;99.90;;;;;;5093109;28;20612;-65
2022/08/26 09:38:27;;;;;;;0.50;0.50;;;30.40;99.90;;;;;;5092423;28;20224;-65
2022/08/26 09:41:25;;;;;;;0.40;0.40;;;30.60;99.90;;;;;;5092914;28;20334;-65
2022/08/26 09:44:19;;;;;;;0.40;0.40;;;30.60;99.90;;;;;;5092770;28;20196;-66
2022/08/26 09:47:08;;;;;;;0.93;0.93;;;30.50;99.90;;;;;;5091962;28;20204;-65
2022/08/26 09:50:03;;;;;;;0.40;0.40;;;30.50;99.90;;;;;;5092481;28;20196;-66
2022/08/26 09:53:04;;;;;;;0.50;0.50;;;30.60;99.90;;;;;;5093056;28;20210;-66
2022/08/26 09:56:16;;;;;;;0.40;0.40;;;30.60;99.90;;;;;;5092610;28;20221;-66
2022/08/26 09:59:09;;;;;;;0.40;0.40;;;30.70;99.90;;;;;;5092329;28;20607;-66
2022/08/26 10:02:20;;;;;;;0.40;0.40;;;30.60;99.90;;;;;;5092103;28;20204;-66
2022/08/26 10:05:16;;;;;;;0.40;0.40;;;30.70;99.90;;;;;;5091888;28;20223;-66
2022/08/26 10:08:21;;;;;;;0.40;0.40;;;30.90;99.90;;;;;;5092205;28;20780;-66
2022/08/26 10:11:18;;;;;;;0.40;0.40;;;31.00;99.90;;;;;;5090721;28;20204;-67
2022/08/26 10:14:12;;;;;;;0.40;0.40;;;30.80;99.90;;;;;;5093392;28;20208;-66
2022/08/26 10:17:07;;;;;;;0.40;0.40;;;30.70;99.90;;;;;;5108610;28;20707;-66
2022/08/26 10:20:02;;;;;;;0.40;0.40;;;30.60;99.90;;;;;;5111430;28;20215;-66
2022/08/26 10:22:56;;;;;;;0.40;0.40;;;30.30;99.90;;;;;;5113466;28;20218;-63
2022/08/26 10:25:48;;;;;;;4.55;4.25;;;29.90;99.90;;;;;;5112136;28;20693;-63
2022/08/26 10:28:47;;;;;;;0.40;0.40;;;29.60;99.90;;;;;;5100875;28;20192;-66
2022/08/26 10:31:40;;;;;;;0.40;0.40;;;29.30;99.90;;;;;;5092306;28;20578;-65
2022/08/26 10:34:28;;;;;;;0.40;0.40;;;29.10;99.90;;;;;;5092105;28;20685;-66
2022/08/26 10:37:20;;;;;;;0.40;0.40;;;28.80;99.90;;;;;;5092397;28;20203;-66
2022/08/26 10:40:13;;;;;;;0.55;0.55;;;28.70;99.90;;;;;;5091604;28;20216;-66
2022/08/26 10:43:07;;;;;;;0.40;0.40;;;28.70;99.90;;;;;;5091994;28;20200;-66
2022/08/26 10:46:13;;;;;;;0.40;0.40;;;28.70;99.90;;;;;;5103791;28;20230;-66
2022/08/26 10:49:05;;;;;;;0.40;0.40;;;28.60;99.90;;;;;;5090951;28;20191;-66
2022/08/26 10:52:01;;;;;;;0.40;0.40;;;28.30;99.90;;;;;;5106273;28;20580;-66
2022/08/26 10:55:01;;;;;;;0.40;0.40;;;27.50;99.90;;;;;;5112621;28;20678;-66
2022/08/26 10:57:56;;;;;;;3.92;1.73;;;26.90;99.90;;;;;;5112348;28;20231;-66
2022/08/26 11:04:05;;;;;;;2.50;1.75;;;25.90;99.90;;;;;;5112447;28;20242;-67
2022/08/26 11:07:27;;;;;;;0.40;0.40;;;25.50;99.90;;;;;;5112693;28;20218;-67
2022/08/26 11:10:55;;;;;;;2.17;2.08;;;25.00;99.90;;;;;;5113261;28;20199;-66
2022/08/26 11:14:00;;;;;;;2.03;1.73;;;24.90;99.90;;;;;;5112231;28;20199;-66
2022/08/26 11:16:51;;;;;;;2.35;1.33;;;24.70;99.90;;;;;;5112398;28;20227;-66
2022/08/26 11:20:07;;;;;;;0.40;0.40;;;24.50;99.90;;;;;;5111968;28;20263;-66
2022/08/26 11:23:37;;;;;;;1.95;1.25;;;24.40;99.90;;;;;;5071516;28;20203;-67
2022/08/26 11:26:35;;;;;;;0.50;0.50;;;24.30;99.90;;;;;;5111043;28;20219;-64
2022/08/26 11:29:58;;;;;;;0.63;0.63;;;24.10;99.90;;;;;;5098581;28;20202;-66
2022/08/26 11:32:49;;;;;;;0.60;0.60;;;24.10;99.90;;;;;;5112335;28;20231;-65
2022/08/26 11:35:49;;;;;;;0.40;0.40;;;23.80;99.90;;;;;;5113595;28;20215;-65
2022/08/26 11:38:42;;;;;;;0.40;0.40;;;23.50;99.90;;;;;;5112903;28;20256;-66
2022/08/26 11:41:30;;;;;;;1.45;1.35;;;23.10;99.90;;;;;;5112831;28;20230;-67
2022/08/26 11:44:21;;;;;;;0.40;0.40;;;22.90;99.90;;;;;;5112465;28;20203;-65
2022/08/26 11:47:13;;;;;;;0.40;0.40;;;22.60;99.90;;;;;;5111142;28;20199;-67
2022/08/26 11:50:11;;;;;;;0.40;0.40;;;22.60;99.90;;;;;;5092476;28;20329;-66
2022/08/26 11:53:03;;;;;;;10.18;1.60;;;22.40;99.90;;;;;;5091598;28;20200;-67
2022/08/26 11:55:55;;;;;;;1.85;1.67;;;22.40;99.90;;;;;;5091521;28;20215;-66
2022/08/26 11:58:46;;;;;;;0.70;0.70;;;22.20;99.90;;;;;;5091130;28;20211;-66
2022/08/26 12:01:36;;;;;;;0.60;0.60;;;22.20;99.90;;;;;;5090828;28;20200;-67
2022/08/26 12:04:30;;;;;;;1.95;1.17;;;22.10;99.90;;;;;;5090696;28;20200;-66
2022/08/26 12:07:23;;;;;;;1.58;1.58;;;22.20;99.90;;;;;;5091596;28;20212;-65
2022/08/26 12:10:28;;;;;;;1.70;1.60;;;22.30;99.90;;;;;;5090556;28;20238;-67
2022/08/26 12:13:21;;;;;;;0.40;0.40;;;22.20;99.90;;;;;;5091762;28;20577;-66
2022/08/26 12:16:09;;;;;;;0.40;0.40;;;22.20;99.90;;;;;;5091049;28;20277;-66
2022/08/26 12:18:58;;;;;;;24.88;8.63;;;22.20;99.90;;;;;;5091570;28;20718;-66
2022/08/26 12:21:48;;;;;;;1.33;0.93;;;22.20;99.90;;;;;;5090926;28;20211;-70
2022/08/26 12:24:42;;;;;;;1.35;1.25;;;21.40;99.90;;;;;;5091886;28;20242;-66
2022/08/26 12:27:34;;;;;;;0.52;0.52;;;20.60;99.90;;;;;;5091494;28;20692;-68
2022/08/26 12:30:24;;;;;;;0.40;0.40;;;20.60;99.90;;;;;;5090026;28;20232;-67
2022/08/26 12:33:14;;;;;;;0.40;0.40;;;20.80;99.90;;;;;;5090680;28;20200;-68
2022/08/26 12:36:10;;;;;;;0.40;0.40;;;21.10;99.90;;;;;;5090442;28;20590;-66
2022/08/26 12:39:07;;;;;;;0.40;0.40;;;21.20;99.90;;;;;;5090574;28;20791;-66
2022/08/26 12:41:57;;;;;;;0.40;0.40;;;21.00;99.90;;;;;;5091861;28;20201;-69
2022/08/26 12:44:48;;;;;;;0.40;0.40;;;21.00;99.90;;;;;;5093777;28;20260;-68
2022/08/26 12:47:43;;;;;;;0.40;0.40;;;21.00;99.90;;;;;;5094388;28;20687;-69
2022/08/26 12:50:36;;;;;;;0.40;0.40;;;21.10;99.90;;;;;;5093329;28;20880;-68
2022/08/26 12:53:41;;;;;;;0.40;0.40;;;21.20;99.90;;;;;;5094278;28;20698;-66
2022/08/26 12:56:38;;;;;;;0.40;0.40;;;21.20;99.90;;;;;;5097412;28;20233;-69
2022/08/26 12:59:33;;;;;;;0.40;0.40;;;21.00;99.90;;;;;;5113903;28;20199;-68
2022/08/26 13:02:39;;;;;;;0.40;0.40;;;21.00;99.90;;;;;;5114078;28;20196;-67
2022/08/26 13:05:34;;;;;;;0.55;0.55;;;20.80;99.90;;;;;;5113135;28;20299;-67
2022/08/26 13:08:27;;;;;;;0.40;0.40;;;20.80;99.90;;;;;;5113576;28;20580;-66
2022/08/26 13:11:19;;;;;;;1.20;0.75;;;20.60;99.90;;;;;;5113299;28;20191;-67
2022/08/26 13:14:10;;;;;;;4.20;2.25;;;20.30;99.90;;;;;;5112801;28;20199;-68
2022/08/26 13:17:05;;;;;;;0.40;0.40;;;20.10;99.90;;;;;;5113206;28;20227;-70
2022/08/26 13:19:54;;;;;;;0.40;0.40;;;20.00;99.90;;;;;;5114169;28;20199;-69
2022/08/26 13:22:50;;;;;;;0.40;0.40;;;20.30;99.90;;;;;;5112705;28;20694;-70
2022/08/26 13:25:56;;;;;;;0.40;0.40;;;20.40;99.90;;;;;;5113694;28;20211;-69
2022/08/26 13:28:44;;;;;;;0.40;0.40;;;20.30;99.90;;;;;;5113178;28;20191;-70
2022/08/26 13:31:42;;;;;;;0.50;0.50;;;20.20;99.90;;;;;;5113863;28;20199;-67
2022/08/26 13:34:32;;;;;;;0.40;0.40;;;20.30;99.90;;;;;;5112500;28;20225;-66
2022/08/26 13:37:22;;;;;;;0.40;0.40;;;20.20;99.90;;;;;;5112860;28;20687;-70
2022/08/26 13:40:23;;;;;;;0.40;0.40;;;20.40;99.90;;;;;;5112703;28;20219;-67
2022/08/26 13:43:11;;;;;;;0.40;0.40;;;20.30;99.90;;;;;;5113708;28;20276;-68
2022/08/26 13:46:00;;;;;;;0.40;0.40;;;20.40;99.90;;;;;;5113841;28;20780;-68
2022/08/26 13:48:48;;;;;;;0.40;0.40;;;20.40;99.90;;;;;;5112787;28;20192;-68
2022/08/26 13:51:37;;;;;;;0.40;0.40;;;20.50;99.90;;;;;;5112603;28;20667;-68
2022/08/26 13:54:26;;;;;;;0.40;0.40;;;20.60;99.90;;;;;;5110980;28;20252;-70
2022/08/26 13:57:14;;;;;;;0.40;0.40;;;20.50;99.90;;;;;;5102508;28;20224;-67
2022/08/26 14:00:03;;;;;;;0.40;0.40;;;20.40;99.90;;;;;;5092453;28;20214;-68
2022/08/26 14:02:51;;;;;;;0.40;0.40;;;20.40;99.90;;;;;;5092380;28;20210;-67
2022/08/26 14:05:40;;;;;;;0.40;0.40;;;20.40;99.90;;;;;;5092536;28;20700;-68
2022/08/26 14:08:28;;;;;;;0.40;0.40;;;20.30;99.90;;;;;;5092639;28;20238;-67
2022/08/26 14:11:19;;;;;;;0.40;0.40;;;20.30;99.90;;;;;;5092377;28;20253;-67
2022/08/26 14:14:07;;;;;;;0.40;0.40;;;20.30;99.90;;;;;;5099890;28;20698;-66
2022/08/26 14:16:55;;;;;;;0.50;0.50;;;20.20;99.90;;;;;;5093522;28;20591;-68
2022/08/26 14:19:49;;;;;;;0.40;0.40;;;20.10;99.90;;;;;;5103659;28;20203;-68
2022/08/26 14:22:38;;;;;;;0.40;0.40;;;20.30;99.90;;;;;;5112458;28;20214;-68
2022/08/26 14:25:45;;;;;;;0.40;0.40;;;20.30;99.90;;;;;;5092304;28;20239;-68
2022/08/26 14:28:35;;;;;;;0.40;0.40;;;20.20;99.90;;;;;;5092577;28;20611;-69
2022/08/26 14:31:23;;;;;;;0.40;0.40;;;20.20;99.90;;;;;;5091500;28;20606;-69
2022/08/26 14:34:13;;;;;;;0.50;0.50;;;20.20;99.90;;;;;;5093647;28;20208;-68
2022/08/26 14:37:01;;;;;;;0.40;0.40;;;20.30;99.90;;;;;;5094846;28;20220;-68
2022/08/26 14:39:55;;;;;;;0.40;0.40;;;20.20;99.90;;;;;;5091706;28;20246;-68
2022/08/26 14:42:44;;;;;;;0.40;0.40;;;20.00;99.90;;;;;;5091897;28;20200;-69
2022/08/26 14:45:42;;;;;;;0.40;0.40;;;19.90;99.90;;;;;;5091848;28;20220;-66
2022/08/26 14:48:30;;;;;;;0.40;0.40;;;20.00;99.90;;;;;;5091630;28;20207;-68
2022/08/26 14:51:20;;;;;;;0.40;0.40;;;20.00;99.90;;;;;;5092350;28;20233;-70
2022/08/26 14:54:12;;;;;;;0.40;0.40;;;20.20;99.90;;;;;;5091956;28;20228;-67
2022/08/26 14:57:03;;;;;;;0.40;0.40;;;20.00;99.90;;;;;;5091838;28;20211;-68
2022/08/26 14:59:51;;;;;;;0.40;0.40;;;20.10;99.90;;;;;;5091533;28;20576;-70
2022/08/26 15:02:41;;;;;;;0.40;0.40;;;20.10;99.90;;;;;;5091523;28;20224;-68